Contact Us:
Email: info@sawbill.com
Phone: (218)663-7150
Fax: (218)663-7980
Mail: 4620 Sawbill Trail
Box 2129
Tofte, MN 55615


Powered by
Movable Type 3.15
 
Sawbill Weather History Archives: November 2015
Current Sawbill Weather History | « October 2015 | December 2015 »


Date

High
Temperature

Low
Temperature

Barometric
Pressure

Relative
Humidity 7AM

9 AM
Temperature

Moisture

Snow

11/30/15 33 22 29.90 93% 33 Trace Trace
11/29/15 29 12 30.16 82% 18 0
11/28/15 32 6 30.20 81% 12 0
11/27/15 20 11 30.24 61% 16 0
11/26/15 25 9 30.38 67% 11 Trace Trace
11/25/15 36 25 30.20 76% 25 .1" 1"
11/24/15 33 28 30.00 96% 32
11/23/15 30 27 30.16 88% 28 trace trace
11/22/15 27 13 29.94 91% 27 0.07" 1"
11/21/15 21 6 30.00 71% 11 Trace Trace
11/20/15 23 16 30.10 72% 18 .02" .5"
11/19/15 30 21 29.92 72% 26 .09" 1.8"
11/18/15 52 48 29.56 98% 26 .56"
11/17/15 51 44 29.58 98% 50 .44"
11/16/15 44 41 29.98 98% 44 .26"
11/15/15 46 32 30.04 98% 41 Trace
11/14/15 40 29 30.06 90% 33 0
11/13/15 31 20 30.02 95% 29 Trace Trace
11/12/15 40 29 29.90 90% 29 .43" 3.5"
11/11/15 46 40 29.74 88% 40 .08"
11/10/15 51 35 29.94 80% 40 0
11/9/15 54 33 30.02 87% 35 0
11/8/15 55 28 30.02 86% 34 0
11/7/15 35 27 30.06 88% 28 Trace Trace
11/6/15 39 32 30.04 86% 32 Trace Trace
11/5/15 53 45 29.78 98% 52 .05"
11/4/15 55 34 29.82 89% 36 .07"
11/3/15 54 40 30.00 98% 45 0
11/2/15 51 34 30.08 97% 40 0
11/1/15 47 34 29.90 88% 34 Trace
 


Home I Trip Planning I Rentals and Outfitting I Reservations I Campgrounds I Sawbill Store I Sawbill News I Contact

© 1997 - 2017, Sawbill Canoe Outfitters, Inc. I Privacy Policy